Time;durP1;ratioP1;P1;durP2;ratioP2;P2;SDS_P1;SDS_P2;PMS_P1;PMS_P2;Temp;Humidity;BMP_temperature;BMP_pressure;BME280_temperature;BME280_humidity;BME280_pressure;Samples;Min_cycle;Max_cycle;Signal;HPM_P1;HPM_P2
2021/01/08 00:00:08;;;;;;;32.17;17.60;;;1.10;99.90;;;;;;5052819;28;20033;-69
2021/01/08 00:02:33;;;;;;;34.83;18.02;;;1.10;99.90;;;;;;5052830;28;20502;-69
2021/01/08 00:04:59;;;;;;;33.20;17.20;;;1.10;99.90;;;;;;5051777;28;20025;-69
2021/01/08 00:07:24;;;;;;;34.33;18.08;;;1.10;99.90;;;;;;5052800;28;20025;-69
2021/01/08 00:09:50;;;;;;;27.30;16.30;;;1.10;99.90;;;;;;5052311;28;20111;-70
2021/01/08 00:12:16;;;;;;;28.58;16.95;;;1.10;99.90;;;;;;5052696;28;20574;-69
2021/01/08 00:14:41;;;;;;;27.52;15.68;;;1.10;99.90;;;;;;5051820;28;20029;-69
2021/01/08 00:17:07;;;;;;;28.83;15.98;;;1.20;99.90;;;;;;5052391;28;20064;-69
2021/01/08 00:19:33;;;;;;;26.23;15.98;;;1.20;99.90;;;;;;5052501;28;20101;-69
2021/01/08 00:21:59;;;;;;;25.08;14.43;;;1.20;99.90;;;;;;5052613;28;20522;-69
2021/01/08 00:24:24;;;;;;;26.27;15.10;;;1.20;99.90;;;;;;5051465;28;20580;-68
2021/01/08 00:26:50;;;;;;;29.98;16.00;;;1.20;99.90;;;;;;5052169;28;20151;-68
2021/01/08 00:29:16;;;;;;;25.52;15.98;;;1.20;99.90;;;;;;5052316;28;20083;-68
2021/01/08 00:31:45;;;;;;;27.60;15.95;;;1.20;99.90;;;;;;5052161;28;20039;-67
2021/01/08 00:34:14;;;;;;;26.85;14.52;;;1.20;99.90;;;;;;5051631;28;20155;-69
2021/01/08 00:36:54;;;;;;;28.35;16.17;;;1.30;99.90;;;;;;5052167;28;20017;-68
2021/01/08 00:39:21;;;;;;;23.92;14.45;;;1.20;99.90;;;;;;5051621;28;20025;-70
2021/01/08 00:41:47;;;;;;;27.15;15.82;;;1.30;99.90;;;;;;5051608;28;20028;-68
2021/01/08 00:44:14;;;;;;;29.65;16.67;;;1.30;99.90;;;;;;5051747;28;20387;-68
2021/01/08 00:46:44;;;;;;;29.48;15.45;;;1.20;99.90;;;;;;5052024;28;20479;-68
2021/01/08 00:49:10;;;;;;;30.33;15.90;;;1.30;99.90;;;;;;5051863;28;20029;-69
2021/01/08 00:51:37;;;;;;;29.90;15.95;;;1.20;99.90;;;;;;5051817;28;20025;-67
2021/01/08 00:54:04;;;;;;;25.75;15.13;;;1.20;99.90;;;;;;5051069;28;20025;-69
2021/01/08 00:56:29;;;;;;;27.60;15.88;;;1.20;99.90;;;;;;5051051;28;20052;-69
2021/01/08 00:58:55;;;;;;;26.02;15.10;;;1.20;99.90;;;;;;5051501;28;20048;-69
2021/01/08 01:01:21;;;;;;;26.77;15.95;;;1.20;99.90;;;;;;5051721;28;20051;-69
2021/01/08 01:03:47;;;;;;;28.83;15.75;;;1.10;99.90;;;;;;5051100;28;20096;-69
2021/01/08 01:06:24;;;;;;;29.23;16.00;;;1.10;99.90;;;;;;5051635;28;20552;-69
2021/01/08 01:08:49;;;;;;;32.65;16.73;;;1.10;99.90;;;;;;5051374;28;20025;-69
2021/01/08 01:11:16;;;;;;;27.27;16.15;;;1.10;99.90;;;;;;5051648;28;20032;-68
2021/01/08 01:13:43;;;;;;;29.60;17.17;;;1.10;99.90;;;;;;5050495;28;20032;-68
2021/01/08 01:16:10;;;;;;;28.98;16.20;;;1.00;99.90;;;;;;5052288;28;20494;-68
2021/01/08 01:18:35;;;;;;;31.35;17.55;;;1.10;99.90;;;;;;5050191;28;20021;-69
2021/01/08 01:21:01;;;;;;;29.20;16.63;;;1.10;99.90;;;;;;5056384;28;20032;-68
2021/01/08 01:23:27;;;;;;;32.55;17.42;;;1.10;99.90;;;;;;5050857;28;20021;-69
2021/01/08 01:25:52;;;;;;;28.40;15.48;;;1.10;99.90;;;;;;5051383;28;20103;-69
2021/01/08 01:28:19;;;;;;;29.67;16.48;;;1.00;99.90;;;;;;5051527;28;20036;-69
2021/01/08 01:30:44;;;;;;;28.83;16.48;;;1.00;99.90;;;;;;5051644;28;20021;-68
2021/01/08 01:33:10;;;;;;;26.63;15.70;;;1.00;99.90;;;;;;5050679;28;20036;-68
2021/01/08 01:35:36;;;;;;;29.08;16.30;;;1.10;99.90;;;;;;5051398;28;20352;-70
2021/01/08 01:38:02;;;;;;;32.60;18.08;;;1.00;99.90;;;;;;5051305;28;20032;-68
2021/01/08 01:40:27;;;;;;;28.55;16.02;;;1.20;99.90;;;;;;5051551;28;20017;-68
2021/01/08 01:42:53;;;;;;;34.22;17.15;;;1.10;99.90;;;;;;5050287;28;20029;-67
2021/01/08 01:45:19;;;;;;;30.33;17.48;;;1.00;99.90;;;;;;5051110;28;20031;-68
2021/01/08 01:47:45;;;;;;;29.70;16.67;;;1.00;99.90;;;;;;5033243;28;20032;-68
2021/01/08 01:50:11;;;;;;;31.15;17.52;;;0.90;99.90;;;;;;5051470;28;20028;-68
2021/01/08 01:52:37;;;;;;;34.65;19.48;;;0.80;99.90;;;;;;5052298;28;20029;-68
2021/01/08 01:55:07;;;;;;;34.78;18.52;;;1.00;99.90;;;;;;5054329;28;20029;-69
2021/01/08 01:57:33;;;;;;;33.15;18.77;;;0.90;99.90;;;;;;5054840;28;20021;-70
2021/01/08 01:59:59;;;;;;;33.40;17.10;;;1.00;99.90;;;;;;5055118;28;20025;-68
2021/01/08 02:02:38;;;;;;;32.38;17.83;;;1.00;99.90;;;;;;5055044;28;20368;-68
2021/01/08 02:05:07;;;;;;;33.05;18.60;;;1.00;99.90;;;;;;5054943;28;20025;-68
2021/01/08 02:07:36;;;;;;;34.90;18.13;;;1.00;99.90;;;;;;5054574;28;20362;-70
2021/01/08 02:10:05;;;;;;;31.40;17.08;;;1.00;99.90;;;;;;5054959;28;20041;-70
2021/01/08 02:12:32;;;;;;;32.65;17.58;;;1.00;99.90;;;;;;5054665;28;20028;-66
2021/01/08 02:14:59;;;;;;;33.28;17.77;;;1.00;99.90;;;;;;5053879;28;20021;-68
2021/01/08 02:17:26;;;;;;;31.73;17.67;;;1.00;99.90;;;;;;5054958;28;20109;-70
2021/01/08 02:20:01;;;;;;;33.25;18.08;;;1.00;99.90;;;;;;5054543;28;20190;-67
2021/01/08 02:22:50;;;;;;;29.35;16.92;;;1.00;99.90;;;;;;5054893;28;20018;-68
2021/01/08 02:25:19;;;;;;;35.33;17.05;;;0.90;99.90;;;;;;5044993;28;20041;-68
2021/01/08 02:28:03;;;;;;;35.00;18.65;;;0.90;99.90;;;;;;5054232;28;20029;-68
2021/01/08 02:30:30;;;;;;;31.02;16.98;;;0.90;99.90;;;;;;5053901;28;20028;-68
2021/01/08 02:32:56;;;;;;;33.78;18.08;;;0.90;99.90;;;;;;5053978;28;20037;-68
2021/01/08 02:35:22;;;;;;;30.92;17.38;;;1.00;99.90;;;;;;5054396;28;20029;-69
2021/01/08 02:37:48;;;;;;;33.67;17.08;;;1.10;99.90;;;;;;5054294;28;20025;-70
2021/01/08 02:40:16;;;;;;;30.40;16.83;;;1.10;99.90;;;;;;5054376;28;20023;-69
2021/01/08 02:42:45;;;;;;;29.23;16.48;;;1.20;99.90;;;;;;5053459;28;20017;-68
2021/01/08 02:45:12;;;;;;;31.75;15.77;;;1.00;99.90;;;;;;5054195;28;20025;-68
2021/01/08 02:47:37;;;;;;;31.17;17.20;;;0.90;99.90;;;;;;5054336;28;20029;-68
2021/01/08 02:50:04;;;;;;;29.52;15.50;;;0.90;99.90;;;;;;5053427;28;20032;-70
2021/01/08 02:52:33;;;;;;;28.00;15.27;;;0.90;99.90;;;;;;5054058;28;20111;-69
2021/01/08 02:55:02;;;;;;;28.50;14.98;;;0.90;99.90;;;;;;5053248;28;20025;-70
2021/01/08 02:57:28;;;;;;;30.70;15.68;;;0.90;99.90;;;;;;5053858;28;20387;-68
2021/01/08 02:59:56;;;;;;;28.63;16.08;;;0.90;99.90;;;;;;5054028;28;20096;-67
2021/01/08 03:02:23;;;;;;;31.00;15.32;;;0.80;99.90;;;;;;5054191;28;20063;-69
2021/01/08 03:04:49;;;;;;;30.98;16.83;;;0.80;99.90;;;;;;5053013;28;20479;-69
2021/01/08 03:07:23;;;;;;;26.90;15.25;;;0.70;99.90;;;;;;5035428;28;20040;-68
2021/01/08 03:09:50;;;;;;;25.60;14.90;;;0.70;99.90;;;;;;5054272;28;20594;-69
2021/01/08 03:12:17;;;;;;;29.70;16.33;;;0.60;99.90;;;;;;5053619;28;20037;-68
2021/01/08 03:14:47;;;;;;;25.83;14.60;;;0.70;99.90;;;;;;5053115;28;20024;-68
2021/01/08 03:17:14;;;;;;;24.67;13.70;;;0.70;99.90;;;;;;5053956;28;20029;-68
2021/01/08 03:19:40;;;;;;;26.30;14.98;;;0.70;99.90;;;;;;5053509;28;20059;-70
2021/01/08 03:22:06;;;;;;;29.77;15.38;;;0.80;99.90;;;;;;5052387;28;20395;-69
2021/01/08 03:24:32;;;;;;;26.15;14.73;;;0.80;99.90;;;;;;5052291;28;20063;-69
2021/01/08 03:26:57;;;;;;;23.33;13.63;;;0.90;99.90;;;;;;5053314;28;20115;-70
2021/01/08 03:29:24;;;;;;;21.50;12.82;;;0.90;99.90;;;;;;5053459;28;20025;-69
2021/01/08 03:31:49;;;;;;;24.95;14.13;;;0.90;99.90;;;;;;5053402;28;20028;-66
2021/01/08 03:34:15;;;;;;;21.65;12.77;;;0.90;99.90;;;;;;5052448;28;20383;-68
2021/01/08 03:36:41;;;;;;;20.85;12.32;;;0.90;99.90;;;;;;5053347;28;20026;-68
2021/01/08 03:39:07;;;;;;;21.75;12.60;;;0.90;99.90;;;;;;5077263;22;20445;-72
2021/01/08 03:41:32;;;;;;;19.63;11.38;;;1.00;99.90;;;;;;5065035;28;20466;-74
2021/01/08 03:43:58;;;;;;;21.42;12.20;;;0.80;99.90;;;;;;5054726;28;20421;-73
2021/01/08 03:46:25;;;;;;;18.60;11.82;;;0.80;99.90;;;;;;5073224;28;20100;-73
2021/01/08 03:48:51;;;;;;;21.08;11.52;;;0.80;99.90;;;;;;5073152;28;20175;-75
2021/01/08 03:51:16;;;;;;;19.15;11.30;;;0.90;99.90;;;;;;5073459;28;20046;-74
2021/01/08 03:53:42;;;;;;;18.70;11.00;;;0.90;99.90;;;;;;5054284;28;20021;-72
2021/01/08 03:56:07;;;;;;;17.63;10.57;;;0.90;99.90;;;;;;5065589;28;20013;-74
2021/01/08 03:58:33;;;;;;;21.20;12.05;;;0.90;99.90;;;;;;5035142;28;20429;-72
2021/01/08 04:00:59;;;;;;;19.90;12.00;;;0.90;99.90;;;;;;5053058;28;20534;-72
2021/01/08 04:03:25;;;;;;;21.60;12.13;;;0.90;99.90;;;;;;5034545;28;20503;-73
2021/01/08 04:05:50;;;;;;;18.02;10.98;;;0.90;99.90;;;;;;5053254;28;20048;-71
2021/01/08 04:08:16;;;;;;;24.83;12.85;;;1.00;99.90;;;;;;5053008;28;20387;-70
2021/01/08 04:10:41;;;;;;;21.00;12.23;;;1.00;99.90;;;;;;5053174;28;20029;-72
2021/01/08 04:13:07;;;;;;;18.90;11.50;;;0.90;99.90;;;;;;5056021;28;20025;-75
2021/01/08 04:15:33;;;;;;;23.40;13.02;;;0.90;99.90;;;;;;5055646;28;20025;-73
2021/01/08 04:17:59;;;;;;;21.98;12.48;;;0.90;99.90;;;;;;5052816;28;20384;-73
2021/01/08 04:20:24;;;;;;;20.95;12.15;;;0.90;99.90;;;;;;5052519;28;20045;-72
2021/01/08 04:22:50;;;;;;;19.88;12.02;;;0.80;99.90;;;;;;5052118;28;20081;-70
2021/01/08 04:25:16;;;;;;;20.40;11.82;;;0.80;99.90;;;;;;5052458;28;20029;-71
2021/01/08 04:27:41;;;;;;;23.63;11.88;;;0.80;99.90;;;;;;5052611;28;20482;-74
2021/01/08 04:30:07;;;;;;;22.95;11.35;;;0.80;99.90;;;;;;5052638;28;20445;-74
2021/01/08 04:32:33;;;;;;;17.65;10.80;;;0.80;99.90;;;;;;5052360;28;20352;-74
2021/01/08 04:34:59;;;;;;;20.27;11.25;;;0.90;99.90;;;;;;5051657;28;20040;-74
2021/01/08 04:37:25;;;;;;;16.73;10.65;;;0.80;99.90;;;;;;5034481;28;20082;-72
2021/01/08 04:39:51;;;;;;;18.80;11.23;;;0.80;99.90;;;;;;5034285;28;20036;-72
2021/01/08 04:42:17;;;;;;;17.77;9.88;;;0.80;99.90;;;;;;5034211;28;20124;-73
2021/01/08 04:44:43;;;;;;;15.20;9.27;;;0.80;99.90;;;;;;5050819;28;20032;-72
2021/01/08 04:47:15;;;;;;;18.35;10.38;;;0.80;99.90;;;;;;5051955;28;20491;-72
2021/01/08 04:49:40;;;;;;;16.40;9.73;;;0.80;99.90;;;;;;5034163;28;20032;-73
2021/01/08 04:52:11;;;;;;;17.02;10.82;;;0.90;99.90;;;;;;5042532;28;20029;-73
2021/01/08 04:54:37;;;;;;;17.02;9.68;;;0.80;99.90;;;;;;5049847;28;20017;-75
2021/01/08 04:57:06;;;;;;;17.13;9.80;;;0.80;99.90;;;;;;5050218;28;20040;-73
2021/01/08 04:59:32;;;;;;;18.02;10.13;;;0.80;99.90;;;;;;5050321;28;20017;-72
2021/01/08 05:01:58;;;;;;;15.93;9.20;;;0.80;99.90;;;;;;5033846;28;20032;-74
2021/01/08 05:04:24;;;;;;;16.58;10.68;;;0.80;99.90;;;;;;5050871;28;20033;-73
2021/01/08 05:06:50;;;;;;;15.77;9.88;;;0.80;99.90;;;;;;5033814;28;20032;-74
2021/01/08 05:09:15;;;;;;;15.82;8.85;;;0.80;99.90;;;;;;5045014;28;20037;-73
2021/01/08 05:11:45;;;;;;;17.10;9.98;;;0.80;99.90;;;;;;5048117;28;20025;-72
2021/01/08 05:14:13;;;;;;;16.92;10.30;;;0.80;99.90;;;;;;5050413;28;20036;-74
2021/01/08 05:16:40;;;;;;;18.48;9.95;;;0.80;99.90;;;;;;5051637;28;20078;-75
2021/01/08 05:19:05;;;;;;;15.00;9.77;;;0.80;99.90;;;;;;5051553;28;20021;-74
2021/01/08 05:21:32;;;;;;;17.00;9.80;;;0.90;99.90;;;;;;5033713;28;20024;-72
2021/01/08 05:24:03;;;;;;;16.90;9.38;;;0.90;99.90;;;;;;5050242;28;20067;-74
2021/01/08 05:26:29;;;;;;;16.42;9.25;;;0.80;99.90;;;;;;5050983;28;20020;-73
2021/01/08 05:28:55;;;;;;;14.13;9.15;;;0.80;99.90;;;;;;5051449;28;20025;-73
2021/01/08 05:31:23;;;;;;;16.40;9.90;;;0.80;99.90;;;;;;5051415;28;20025;-71
2021/01/08 05:33:49;;;;;;;15.50;9.55;;;0.80;99.90;;;;;;5050408;28;20027;-72
2021/01/08 05:36:16;;;;;;;15.48;9.40;;;0.80;99.90;;;;;;5051544;28;20028;-74
2021/01/08 05:38:45;;;;;;;20.45;9.80;;;0.80;99.90;;;;;;5051311;28;20036;-74
2021/01/08 05:41:11;;;;;;;16.67;9.45;;;0.90;99.90;;;;;;5051738;28;20561;-74
2021/01/08 05:43:44;;;;;;;14.95;9.60;;;0.80;99.90;;;;;;5050543;28;20021;-74
2021/01/08 05:46:19;;;;;;;15.38;8.75;;;0.80;99.90;;;;;;5051286;28;20501;-74
2021/01/08 05:48:46;;;;;;;15.07;8.63;;;0.80;99.90;;;;;;5031306;28;20037;-72
2021/01/08 05:51:17;;;;;;;12.45;8.15;;;0.80;99.90;;;;;;5022145;28;20030;-75
2021/01/08 05:53:46;;;;;;;15.18;9.10;;;0.90;99.90;;;;;;5021066;28;20021;-71
2021/01/08 05:56:20;;;;;;;16.75;9.80;;;0.90;99.90;;;;;;5045577;28;20029;-72
2021/01/08 05:58:47;;;;;;;16.77;8.73;;;1.00;99.90;;;;;;5042756;28;20093;-73
2021/01/08 06:01:13;;;;;;;13.35;8.43;;;0.90;99.90;;;;;;5041608;28;20021;-74
2021/01/08 06:03:41;;;;;;;14.93;9.57;;;1.00;99.90;;;;;;5036716;28;20036;-73
2021/01/08 06:06:07;;;;;;;17.08;9.30;;;1.00;99.90;;;;;;5033052;28;20052;-71
2021/01/08 06:08:53;;;;;;;17.05;10.68;;;1.10;99.90;;;;;;5030444;28;20076;-67
2021/01/08 06:11:19;;;;;;;18.73;11.25;;;1.40;99.90;;;;;;5031024;28;20025;-68
2021/01/08 06:13:50;;;;;;;20.45;10.80;;;1.60;99.90;;;;;;5030262;28;20045;-68
2021/01/08 06:16:20;;;;;;;15.73;9.88;;;2.30;99.90;;;;;;5031048;28;20029;-68
2021/01/08 06:18:49;;;;;;;15.40;9.77;;;1.60;99.90;;;;;;5031400;28;20049;-72
2021/01/08 06:21:15;;;;;;;14.88;8.82;;;1.60;99.90;;;;;;5031264;28;20022;-72
2021/01/08 06:23:46;;;;;;;16.25;9.90;;;1.40;99.90;;;;;;5047265;28;20083;-71
2021/01/08 06:26:12;;;;;;;13.18;8.60;;;1.30;99.90;;;;;;5034251;28;20056;-74
2021/01/08 06:28:43;;;;;;;14.02;8.52;;;1.30;99.90;;;;;;5052131;28;20032;-71
2021/01/08 06:31:11;;;;;;;16.05;9.93;;;1.20;99.90;;;;;;5051477;28;20029;-70
2021/01/08 06:33:38;;;;;;;15.07;9.38;;;1.20;99.90;;;;;;5049072;28;20103;-71
2021/01/08 06:36:25;;;;;;;15.55;9.18;;;1.20;99.90;;;;;;5050602;28;20040;-69
2021/01/08 06:38:53;;;;;;;18.40;9.98;;;1.10;99.90;;;;;;5034236;28;20063;-72
2021/01/08 06:41:19;;;;;;;15.15;9.15;;;1.10;99.90;;;;;;5054465;28;20044;-70
2021/01/08 06:43:58;;;;;;;16.02;9.43;;;1.10;99.90;;;;;;5035471;28;20021;-69
2021/01/08 06:46:28;;;;;;;15.80;10.25;;;1.20;99.90;;;;;;5054119;28;20021;-69
2021/01/08 06:49:10;;;;;;;15.43;9.88;;;1.10;99.90;;;;;;5054883;28;20047;-69
2021/01/08 06:51:38;;;;;;;16.25;10.23;;;1.10;99.90;;;;;;5055608;28;20021;-68
2021/01/08 06:54:04;;;;;;;18.42;10.98;;;1.10;99.90;;;;;;5053099;28;20403;-71
2021/01/08 06:56:35;;;;;;;18.13;10.35;;;1.10;99.90;;;;;;5055040;28;20041;-67
2021/01/08 06:59:06;;;;;;;25.15;13.95;;;1.80;99.90;;;;;;5057768;28;20023;-69
2021/01/08 07:01:54;;;;;;;23.05;13.75;;;2.40;99.90;;;;;;5061393;28;20021;-72
2021/01/08 07:04:24;;;;;;;22.95;12.40;;;2.10;99.90;;;;;;5050639;28;20028;-72
2021/01/08 07:06:50;;;;;;;22.35;12.65;;;1.80;99.90;;;;;;5054681;28;20468;-74
2021/01/08 07:09:16;;;;;;;20.48;12.70;;;1.60;99.90;;;;;;5054223;28;20392;-72
2021/01/08 07:11:42;;;;;;;21.08;13.18;;;1.50;99.90;;;;;;5056299;28;20033;-74
2021/01/08 07:14:13;;;;;;;23.92;13.43;;;1.40;99.90;;;;;;5045738;28;20026;-72
2021/01/08 07:16:46;;;;;;;19.15;12.75;;;1.40;99.90;;;;;;5035211;28;20029;-74
2021/01/08 07:19:14;;;;;;;22.52;13.82;;;1.40;99.90;;;;;;5033698;28;20112;-70
2021/01/08 07:21:52;;;;;;;26.08;15.40;;;1.40;99.90;;;;;;5033718;28;20022;-71
2021/01/08 07:24:38;;;;;;;20.38;12.80;;;2.10;99.90;;;;;;5033120;28;20052;-71
2021/01/08 07:27:22;;;;;;;18.30;11.93;;;1.90;99.90;;;;;;5033710;28;20492;-73
2021/01/08 07:29:52;;;;;;;18.83;11.30;;;1.70;99.90;;;;;;5015623;28;20033;-72
2021/01/08 07:32:31;;;;;;;15.15;10.65;;;1.60;99.90;;;;;;5038862;28;20048;-69
2021/01/08 07:34:57;;;;;;;15.23;9.40;;;1.50;99.90;;;;;;5051141;28;20104;-72
2021/01/08 07:38:01;;;;;;;18.00;10.18;;;1.40;99.90;;;;;;5055150;28;20045;-71
2021/01/08 07:40:29;;;;;;;15.68;9.05;;;1.40;99.90;;;;;;5038903;28;20030;-71
2021/01/08 07:42:59;;;;;;;15.52;10.20;;;1.40;99.90;;;;;;5036804;28;20049;-70
2021/01/08 07:45:43;;;;;;;17.60;9.55;;;1.40;99.90;;;;;;5021336;28;20029;-72
2021/01/08 07:48:38;;;;;;;15.25;9.80;;;1.40;99.90;;;;;;5038234;28;20479;-70
2021/01/08 07:51:09;;;;;;;13.95;8.85;;;1.50;99.90;;;;;;5040190;28;20041;-72
2021/01/08 07:53:40;;;;;;;18.42;10.60;;;1.50;99.90;;;;;;5053074;28;20029;-71
2021/01/08 07:56:10;;;;;;;15.15;9.82;;;1.50;99.90;;;;;;5053625;28;20050;-71
2021/01/08 07:58:36;;;;;;;15.52;10.18;;;1.50;99.90;;;;;;5053390;28;20091;-71
2021/01/08 08:01:03;;;;;;;15.05;9.65;;;1.60;99.90;;;;;;5053126;28;20020;-72
2021/01/08 08:03:29;;;;;;;15.27;9.93;;;1.70;99.90;;;;;;5051764;28;20017;-71
2021/01/08 08:05:55;;;;;;;20.30;12.00;;;1.80;99.90;;;;;;5053187;28;20399;-69
2021/01/08 08:08:21;;;;;;;19.30;11.68;;;3.10;99.90;;;;;;5053914;28;20044;-68
2021/01/08 08:10:47;;;;;;;17.67;10.63;;;4.10;99.90;;;;;;5053428;28;20099;-72
2021/01/08 08:13:13;;;;;;;15.60;11.02;;;3.80;99.90;;;;;;5052197;28;20029;-71
2021/01/08 08:15:46;;;;;;;14.10;8.80;;;3.30;99.90;;;;;;5052868;28;20029;-69
2021/01/08 08:18:12;;;;;;;13.77;8.50;;;3.10;99.90;;;;;;5052684;28;20018;-71
2021/01/08 08:20:38;;;;;;;11.38;7.50;;;2.90;99.90;;;;;;5052828;28;20208;-72
2021/01/08 08:23:14;;;;;;;12.05;8.80;;;2.80;99.90;;;;;;5033823;28;20088;-72
2021/01/08 08:25:40;;;;;;;12.10;7.93;;;2.90;99.90;;;;;;5052547;28;20364;-71
2021/01/08 08:28:06;;;;;;;14.40;8.57;;;2.90;99.90;;;;;;5052807;28;20036;-70
2021/01/08 08:30:33;;;;;;;11.88;8.57;;;2.70;99.90;;;;;;5053134;28;20025;-70
2021/01/08 08:32:59;;;;;;;13.02;8.50;;;2.30;99.90;;;;;;5046082;28;20491;-71
2021/01/08 08:35:25;;;;;;;11.57;7.97;;;2.40;99.90;;;;;;5052140;28;20428;-72
2021/01/08 08:37:57;;;;;;;12.85;8.90;;;2.60;99.90;;;;;;5034234;28;20129;-71
2021/01/08 08:40:24;;;;;;;12.15;7.90;;;2.50;99.90;;;;;;5052143;28;20029;-71
2021/01/08 08:42:52;;;;;;;13.02;8.90;;;2.60;99.90;;;;;;5051623;28;20495;-72
2021/01/08 08:45:20;;;;;;;13.15;8.32;;;2.70;99.90;;;;;;5052448;28;20025;-70
2021/01/08 08:47:47;;;;;;;11.90;7.95;;;2.60;99.90;;;;;;5051951;28;20025;-71
2021/01/08 08:50:15;;;;;;;11.57;7.30;;;2.60;99.90;;;;;;5051743;28;20108;-70
2021/01/08 08:52:41;;;;;;;13.40;7.93;;;2.60;99.90;;;;;;5051836;28;20032;-72
2021/01/08 08:55:07;;;;;;;11.93;7.57;;;2.50;99.90;;;;;;5051403;28;20029;-71
2021/01/08 08:57:33;;;;;;;11.75;6.85;;;2.30;99.90;;;;;;5034026;28;20110;-72
2021/01/08 08:59:59;;;;;;;10.00;7.18;;;2.30;99.90;;;;;;5052077;28;20228;-70
2021/01/08 09:02:29;;;;;;;10.88;7.40;;;2.30;99.90;;;;;;5032583;28;20028;-72
2021/01/08 09:05:00;;;;;;;11.40;7.22;;;2.30;99.90;;;;;;5033000;28;20029;-71
2021/01/08 09:07:32;;;;;;;11.38;7.68;;;2.40;99.90;;;;;;5054524;28;20506;-71
2021/01/08 09:10:04;;;;;;;11.00;6.43;;;2.30;99.90;;;;;;5058497;28;20398;-73
2021/01/08 09:12:41;;;;;;;10.07;7.18;;;2.30;99.90;;;;;;5055389;28;20040;-72
2021/01/08 09:15:32;;;;;;;11.27;7.47;;;2.40;99.90;;;;;;5057316;28;20021;-70
2021/01/08 09:18:10;;;;;;;14.35;8.38;;;2.40;99.90;;;;;;5034868;28;20029;-71
2021/01/08 09:20:49;;;;;;;10.02;7.68;;;2.60;99.90;;;;;;5051763;28;20427;-70
2021/01/08 09:23:16;;;;;;;10.13;7.43;;;2.70;99.90;;;;;;5052439;28;20106;-71
2021/01/08 09:25:42;;;;;;;12.20;7.05;;;2.70;99.90;;;;;;5051635;28;20488;-71
2021/01/08 09:28:16;;;;;;;9.25;7.03;;;2.70;99.90;;;;;;5051593;28;20037;-69
2021/01/08 09:30:51;;;;;;;9.27;6.38;;;3.00;99.90;;;;;;5052386;28;20053;-71
2021/01/08 09:33:17;;;;;;;9.52;6.45;;;3.60;99.90;;;;;;5051190;28;20406;-71
2021/01/08 09:35:45;;;;;;;9.02;6.50;;;3.40;99.90;;;;;;5051637;28;20025;-70
2021/01/08 09:38:13;;;;;;;7.72;5.70;;;4.00;99.90;;;;;;5051583;28;20049;-72
2021/01/08 09:40:39;;;;;;;10.43;6.07;;;4.80;99.90;;;;;;5051759;28;20410;-70
2021/01/08 09:43:05;;;;;;;7.45;6.03;;;5.20;99.90;;;;;;5050925;28;20080;-68
2021/01/08 09:45:31;;;;;;;6.78;5.38;;;5.70;99.90;;;;;;5051640;28;20024;-70
2021/01/08 09:47:57;;;;;;;8.18;6.43;;;6.40;99.90;;;;;;5052060;28;20106;-71
2021/01/08 09:50:32;;;;;;;7.80;5.65;;;6.80;99.90;;;;;;5051788;28;20048;-69
2021/01/08 09:53:10;;;;;;;7.30;5.65;;;6.00;99.90;;;;;;5050663;28;20462;-71
2021/01/08 09:55:35;;;;;;;6.53;5.45;;;5.20;99.90;;;;;;5051457;28;20022;-69
2021/01/08 09:58:02;;;;;;;7.97;5.60;;;4.80;99.90;;;;;;5051731;28;20044;-70
2021/01/08 10:00:32;;;;;;;8.52;6.45;;;4.80;99.90;;;;;;5033837;28;20086;-71
2021/01/08 10:02:58;;;;;;;9.50;5.85;;;4.10;99.90;;;;;;5050766;28;20032;-71
2021/01/08 10:05:28;;;;;;;7.93;5.97;;;3.60;99.90;;;;;;5051062;28;20029;-72
2021/01/08 10:07:55;;;;;;;7.88;6.05;;;3.50;99.90;;;;;;5052429;28;20028;-70
2021/01/08 10:10:40;;;;;;;9.23;6.57;;;3.50;99.90;;;;;;5051334;28;20037;-70
2021/01/08 10:13:14;;;;;;;7.13;5.88;;;4.00;99.90;;;;;;5051450;28;20558;-71
2021/01/08 10:15:46;;;;;;;8.98;5.85;;;4.40;99.90;;;;;;5055175;28;20036;-70
2021/01/08 10:18:21;;;;;;;6.70;5.97;;;4.30;99.90;;;;;;5055289;28;20024;-72
2021/01/08 10:20:51;;;;;;;9.20;6.88;;;4.20;99.90;;;;;;5055095;28;20487;-69
2021/01/08 10:23:19;;;;;;;9.65;6.53;;;4.60;99.90;;;;;;5054261;28;20825;-71
2021/01/08 10:25:45;;;;;;;7.88;6.50;;;4.80;99.90;;;;;;5054674;28;20391;-71
2021/01/08 10:28:19;;;;;;;7.85;6.28;;;5.20;99.90;;;;;;5055032;28;20033;-70
2021/01/08 10:30:46;;;;;;;9.40;6.38;;;5.30;99.90;;;;;;5054534;28;20025;-72
2021/01/08 10:33:13;;;;;;;7.85;5.90;;;5.30;99.90;;;;;;5054247;28;20027;-72
2021/01/08 10:35:44;;;;;;;7.47;6.20;;;5.50;99.90;;;;;;5054776;28;20100;-72
2021/01/08 10:38:10;;;;;;;7.55;6.05;;;5.70;99.90;;;;;;5054052;28;20111;-70
2021/01/08 10:40:36;;;;;;;8.15;6.15;;;6.50;99.90;;;;;;5054853;28;20112;-74
2021/01/08 10:43:01;;;;;;;9.52;6.28;;;6.30;99.90;;;;;;5054173;28;20032;-73
2021/01/08 10:45:27;;;;;;;7.43;6.15;;;6.10;99.90;;;;;;5054041;28;20074;-73
2021/01/08 10:47:53;;;;;;;7.70;6.15;;;6.30;99.90;;;;;;5054512;28;20028;-71
2021/01/08 10:50:18;;;;;;;10.60;6.78;;;6.30;99.90;;;;;;5054262;28;20071;-72
2021/01/08 10:52:44;;;;;;;7.82;6.13;;;6.40;99.90;;;;;;5053775;28;20052;-72
2021/01/08 10:55:11;;;;;;;7.95;6.45;;;6.50;99.90;;;;;;5054398;28;20036;-70
2021/01/08 10:57:37;;;;;;;8.63;6.20;;;6.10;99.90;;;;;;5054918;28;20033;-72
2021/01/08 11:00:06;;;;;;;5.65;5.05;;;6.30;99.90;;;;;;5054524;28;20017;-71
2021/01/08 11:02:32;;;;;;;7.32;5.03;;;6.10;99.90;;;;;;5054349;28;20025;-70
2021/01/08 11:04:58;;;;;;;4.28;3.88;;;5.70;99.90;;;;;;5053258;28;20032;-69
2021/01/08 11:07:24;;;;;;;9.73;4.32;;;5.60;99.90;;;;;;5054107;28;20029;-70
2021/01/08 11:09:50;;;;;;;4.53;4.00;;;5.40;99.90;;;;;;5053839;28;20025;-70
2021/01/08 11:12:16;;;;;;;4.22;3.83;;;5.50;99.90;;;;;;5054012;28;20036;-70
2021/01/08 11:14:42;;;;;;;4.13;3.60;;;5.20;99.90;;;;;;5052921;28;20032;-71
2021/01/08 11:17:07;;;;;;;5.53;3.38;;;5.50;99.90;;;;;;5053629;28;20119;-69
2021/01/08 11:19:33;;;;;;;5.30;3.30;;;5.60;99.90;;;;;;5053961;28;20538;-71
2021/01/08 11:24:29;;;;;;;4.22;3.60;;;6.30;99.90;;;;;;5060985;28;20044;-70
2021/01/08 11:26:55;;;;;;;6.45;3.55;;;7.00;99.90;;;;;;5067615;28;20075;-69
2021/01/08 11:29:21;;;;;;;5.43;3.25;;;6.50;99.90;;;;;;5053434;28;20025;-71
2021/01/08 11:31:46;;;;;;;4.35;3.50;;;6.20;99.90;;;;;;5053893;28;20032;-69
2021/01/08 11:34:12;;;;;;;5.53;3.65;;;5.90;99.90;;;;;;5052756;28;20036;-67
2021/01/08 11:36:38;;;;;;;5.03;3.25;;;5.30;99.90;;;;;;5053435;28;20025;-68
2021/01/08 11:39:05;;;;;;;5.75;3.35;;;4.70;99.90;;;;;;5053371;28;20070;-68
2021/01/08 11:41:31;;;;;;;4.55;2.97;;;4.70;99.90;;;;;;5053502;28;20028;-69
2021/01/08 11:43:57;;;;;;;7.13;3.65;;;4.30;99.90;;;;;;5052446;28;20025;-68
2021/01/08 11:46:23;;;;;;;3.70;3.35;;;4.20;99.90;;;;;;5053539;28;20045;-67
2021/01/08 11:48:52;;;;;;;4.65;3.60;;;4.30;99.90;;;;;;5055182;28;20395;-77
2021/01/08 11:51:24;;;;;;;5.38;4.00;;;6.00;99.90;;;;;;5055501;28;20031;-76
2021/01/08 11:53:52;;;;;;;3.88;3.13;;;7.30;99.90;;;;;;5037499;28;20052;-74
2021/01/08 11:56:25;;;;;;;6.57;3.90;;;8.10;99.90;;;;;;5033116;28;20026;-66
2021/01/08 11:58:51;;;;;;;7.38;3.45;;;7.90;99.90;;;;;;5033417;28;20057;-67
2021/01/08 12:01:16;;;;;;;7.55;3.78;;;7.10;99.90;;;;;;5032527;28;20459;-66
2021/01/08 12:03:42;;;;;;;3.90;3.08;;;6.10;99.90;;;;;;5031812;28;20108;-69
2021/01/08 12:06:09;;;;;;;5.93;3.03;;;5.10;99.90;;;;;;5035124;28;20064;-71
2021/01/08 12:08:38;;;;;;;3.53;3.22;;;5.20;99.90;;;;;;5052368;28;20032;-72
2021/01/08 12:11:05;;;;;;;3.90;3.42;;;4.70;99.90;;;;;;5052607;28;20033;-68
2021/01/08 12:13:30;;;;;;;6.80;3.17;;;4.80;99.90;;;;;;5051804;28;20112;-69
2021/01/08 12:15:56;;;;;;;4.18;3.45;;;4.80;99.90;;;;;;5047802;28;20105;-75
2021/01/08 12:18:22;;;;;;;4.22;3.17;;;5.10;99.90;;;;;;5037715;28;20029;-75
2021/01/08 12:20:47;;;;;;;25.58;13.10;;;5.30;99.90;;;;;;5033805;28;20068;-76
2021/01/08 12:23:14;;;;;;;5.68;3.97;;;5.50;99.90;;;;;;5042258;28;20033;-75
2021/01/08 12:25:41;;;;;;;10.50;3.60;;;5.50;99.90;;;;;;5035280;28;20380;-74
2021/01/08 12:28:08;;;;;;;6.38;3.80;;;5.60;99.90;;;;;;5067265;28;20025;-74
2021/01/08 12:30:35;;;;;;;3.95;3.45;;;5.60;99.90;;;;;;5052511;28;20512;-73
2021/01/08 12:33:02;;;;;;;5.05;4.20;;;5.70;99.90;;;;;;5052700;28;20032;-74
2021/01/08 12:35:28;;;;;;;4.57;3.65;;;6.10;99.90;;;;;;5052042;28;20031;-75
2021/01/08 12:37:54;;;;;;;9.25;3.70;;;5.80;99.90;;;;;;5052173;28;20024;-75
2021/01/08 12:40:21;;;;;;;5.20;3.70;;;5.70;99.90;;;;;;5053420;28;20040;-75
2021/01/08 12:42:48;;;;;;;6.38;4.03;;;5.70;99.90;;;;;;5053038;28;20090;-75
2021/01/08 12:45:15;;;;;;;5.90;5.25;;;5.50;99.90;;;;;;5053247;28;20055;-76
2021/01/08 12:47:41;;;;;;;4.85;3.83;;;5.40;99.90;;;;;;5054009;28;20025;-73
2021/01/08 12:50:08;;;;;;;4.65;3.67;;;5.10;99.90;;;;;;5053076;28;20032;-74
2021/01/08 12:52:34;;;;;;;6.05;4.15;;;4.80;99.90;;;;;;5052499;28;20021;-75